createdAt,value
2022-10-18T00:01:03.935Z,96199.47
2022-10-18T00:03:32.213Z,96206.00
2022-10-18T00:06:00.856Z,96212.91
2022-10-18T00:08:29.393Z,96210.63
2022-10-18T00:10:57.686Z,96210.97
2022-10-18T00:13:27.700Z,96218.91
2022-10-18T00:15:59.613Z,96227.78
2022-10-18T00:18:28.369Z,96223.63
2022-10-18T00:21:00.969Z,96223.16
2022-10-18T00:23:30.854Z,96228.00
2022-10-18T00:26:04.431Z,96227.44
2022-10-18T00:28:33.445Z,96227.44
2022-10-18T00:31:13.331Z,96220.97
2022-10-18T00:33:41.931Z,96215.53
2022-10-18T00:36:10.239Z,96210.69
2022-10-18T00:38:38.552Z,96211.34
2022-10-18T00:41:08.756Z,96220.75
2022-10-18T00:43:52.591Z,96218.81
2022-10-18T00:46:22.169Z,96222.91
2022-10-18T00:48:51.442Z,96226.75
2022-10-18T00:51:22.307Z,96225.19
2022-10-18T00:53:50.953Z,96236.59
2022-10-18T00:56:19.433Z,96234.41
2022-10-18T00:58:48.813Z,96228.56
2022-10-18T01:01:17.050Z,96225.16
2022-10-18T01:03:47.034Z,96223.53
2022-10-18T01:06:15.077Z,96220.31
2022-10-18T01:08:52.446Z,96223.44
2022-10-18T01:11:34.334Z,96219.38
2022-10-18T01:14:13.938Z,96223.22
2022-10-18T01:16:49.178Z,96221.16
2022-10-18T01:19:43.288Z,96217.31
2022-10-18T01:22:18.354Z,96219.81
2022-10-18T01:27:46.444Z,96213.00
2022-10-18T01:30:40.600Z,96215.69
2022-10-18T01:33:17.852Z,96215.34
2022-10-18T01:35:50.901Z,96221.81
2022-10-18T01:38:21.818Z,96217.25
2022-10-18T01:40:53.254Z,96200.38
2022-10-18T01:43:24.189Z,96210.09
2022-10-18T01:45:56.192Z,96204.00
2022-10-18T01:48:24.646Z,96204.59
2022-10-18T01:50:53.643Z,96207.25
2022-10-18T01:53:27.030Z,96200.38
2022-10-18T01:56:26.271Z,96218.28
2022-10-18T01:59:23.437Z,96229.16
2022-10-18T02:01:58.440Z,96220.66
2022-10-18T02:04:35.225Z,96213.97
2022-10-18T02:07:10.729Z,96208.25
2022-10-18T02:09:46.170Z,96214.06
2022-10-18T02:12:16.351Z,96213.19
2022-10-18T02:14:46.620Z,96217.00
2022-10-18T02:17:18.493Z,96213.25
2022-10-18T02:19:48.754Z,96209.66
2022-10-18T02:22:18.194Z,96209.88
2022-10-18T02:24:50.853Z,96213.69
2022-10-18T02:27:19.387Z,96224.72
2022-10-18T02:29:48.022Z,96223.00
2022-10-18T02:32:24.021Z,96228.16
2022-10-18T02:34:59.632Z,96222.88
2022-10-18T02:37:35.178Z,96221.19
2022-10-18T02:40:05.054Z,96214.88
2022-10-18T02:42:37.314Z,96225.81
2022-10-18T02:45:07.527Z,96222.09
2022-10-18T02:47:37.291Z,96224.19
2022-10-18T02:50:06.071Z,96228.81
2022-10-18T02:52:34.002Z,96232.50
2022-10-18T02:55:02.319Z,96237.41
2022-10-18T02:57:31.334Z,96239.53
2022-10-18T02:59:59.690Z,96240.59
2022-10-18T03:02:27.729Z,96236.47
2022-10-18T03:04:57.015Z,96229.56
2022-10-18T03:07:25.058Z,96232.25
2022-10-18T03:09:54.741Z,96239.53
2022-10-18T03:12:23.661Z,96246.66
2022-10-18T03:14:51.662Z,96243.66
2022-10-18T03:17:19.683Z,96250.41
2022-10-18T03:19:47.706Z,96248.06
2022-10-18T03:22:17.034Z,96247.63
2022-10-18T03:24:47.056Z,96250.94
2022-10-18T03:27:15.078Z,96257.94
2022-10-18T03:29:43.096Z,96253.28
2022-10-18T03:32:11.194Z,96245.81
2022-10-18T03:34:39.210Z,96235.38
2022-10-18T03:37:07.349Z,96237.94
2022-10-18T03:39:36.798Z,96248.66
2022-10-18T03:42:05.182Z,96246.94
2022-10-18T03:44:33.171Z,96247.19
2022-10-18T03:47:01.463Z,96244.19
2022-10-18T03:49:29.727Z,96238.47
2022-10-18T03:51:57.861Z,96240.53
2022-10-18T03:54:26.989Z,96239.34
2022-10-18T03:56:56.540Z,96237.69
2022-10-18T03:59:24.518Z,96238.69
2022-10-18T04:01:52.543Z,96228.19
2022-10-18T04:04:21.988Z,96224.16
2022-10-18T04:06:50.166Z,96225.78
2022-10-18T04:09:18.257Z,96226.03
2022-10-18T04:11:46.265Z,96227.75
2022-10-18T04:14:15.845Z,96233.25
2022-10-18T04:16:43.990Z,96234.00
2022-10-18T04:19:11.982Z,96236.75
2022-10-18T04:21:40.075Z,96239.53
2022-10-18T04:24:08.202Z,96226.00
2022-10-18T04:26:36.763Z,96229.91
2022-10-18T04:29:05.043Z,96220.75
2022-10-18T04:31:34.416Z,96225.78
2022-10-18T04:34:04.591Z,96229.47
2022-10-18T04:36:32.915Z,96228.56
2022-10-18T04:39:00.804Z,96231.78
2022-10-18T04:41:29.274Z,96219.59
2022-10-18T04:43:57.658Z,96223.69
2022-10-18T04:46:25.987Z,96220.88
2022-10-18T04:48:55.409Z,96219.81
2022-10-18T04:51:23.451Z,96220.84
2022-10-18T04:53:51.376Z,96222.00
2022-10-18T04:56:19.525Z,96214.63
2022-10-18T04:58:47.978Z,96214.06
2022-10-18T05:01:17.219Z,96210.72
2022-10-18T05:03:45.680Z,96215.66
2022-10-18T05:06:15.036Z,96210.69
2022-10-18T05:08:43.034Z,96217.47
2022-10-18T05:11:11.243Z,96224.03
2022-10-18T05:13:39.419Z,96220.19
2022-10-18T05:16:08.066Z,96221.38
2022-10-18T05:18:36.008Z,96220.41
2022-10-18T05:21:04.145Z,96223.63
2022-10-18T05:23:33.474Z,96226.97
2022-10-18T05:26:03.776Z,96226.75
2022-10-18T05:28:41.172Z,96228.00
2022-10-18T05:31:11.796Z,96226.75
2022-10-18T05:33:40.089Z,96228.72
2022-10-18T05:36:09.073Z,96236.19
2022-10-18T05:38:43.108Z,96218.91
2022-10-18T05:41:11.658Z,96216.34
2022-10-18T05:43:39.870Z,96218.44
2022-10-18T05:46:13.477Z,96222.72
2022-10-18T05:48:43.524Z,96220.88
2022-10-18T05:51:11.839Z,96216.25
2022-10-18T05:53:41.286Z,96225.84
2022-10-18T05:56:11.798Z,96225.25
2022-10-18T05:58:41.128Z,96232.53
2022-10-18T06:01:10.916Z,96236.69
2022-10-18T06:03:39.700Z,96231.94
2022-10-18T06:06:10.186Z,96237.09
2022-10-18T06:08:39.107Z,96238.03
2022-10-18T06:11:09.950Z,96237.72
2022-10-18T06:13:41.157Z,96243.13
2022-10-18T06:16:09.514Z,96243.00
2022-10-18T06:18:37.658Z,96238.34
2022-10-18T06:21:06.429Z,96237.66
2022-10-18T06:23:34.806Z,96243.19
2022-10-18T06:26:04.667Z,96246.22
2022-10-18T06:28:35.664Z,96248.66
2022-10-18T06:31:04.115Z,96245.41
2022-10-18T06:33:33.025Z,96240.13
2022-10-18T06:36:02.695Z,96238.38
2022-10-18T06:38:31.177Z,96237.19
2022-10-18T06:41:00.105Z,96238.81
2022-10-18T06:43:28.204Z,96236.59
2022-10-18T06:45:57.838Z,96238.59
2022-10-18T06:48:25.852Z,96242.91
2022-10-18T06:50:56.921Z,96245.16
2022-10-18T06:53:25.287Z,96242.44
2022-10-18T06:55:53.664Z,96240.44
2022-10-18T06:58:21.796Z,96241.44
2022-10-18T07:00:49.752Z,96256.75
2022-10-18T07:03:19.446Z,96247.50
2022-10-18T07:05:47.845Z,96255.03
2022-10-18T07:08:16.009Z,96249.09
2022-10-18T07:10:53.253Z,96246.16
2022-10-18T07:13:38.599Z,96246.53
2022-10-18T07:16:10.651Z,96241.06
2022-10-18T07:18:44.609Z,96252.22
2022-10-18T07:21:15.255Z,96252.81
2022-10-18T07:23:46.995Z,96249.56
2022-10-18T07:26:17.523Z,96247.22
2022-10-18T07:28:49.075Z,96247.22
2022-10-18T07:31:18.129Z,96254.13
2022-10-18T07:33:47.951Z,96251.06
2022-10-18T07:36:16.109Z,96255.41
2022-10-18T07:38:44.630Z,96257.34
2022-10-18T07:41:44.876Z,96265.63
2022-10-18T07:44:22.728Z,96267.16
2022-10-18T07:46:50.911Z,96263.91
2022-10-18T07:49:20.260Z,96262.00
2022-10-18T07:51:48.176Z,96261.78
2022-10-18T07:54:16.369Z,96256.38
2022-10-18T07:56:44.421Z,96259.63
2022-10-18T07:59:12.535Z,96263.91
2022-10-18T08:01:41.004Z,96248.34
2022-10-18T08:04:13.989Z,96245.16
2022-10-18T08:06:45.669Z,96249.34
2022-10-18T08:09:13.831Z,96241.16
2022-10-18T08:11:41.924Z,96244.28
2022-10-18T08:14:09.984Z,96251.22
2022-10-18T08:16:38.052Z,96256.28
2022-10-18T08:19:06.058Z,96254.47
2022-10-18T08:21:34.246Z,96256.47
2022-10-18T08:24:03.678Z,96251.00
2022-10-18T08:26:31.878Z,96255.44
2022-10-18T08:29:20.986Z,96258.50
2022-10-18T08:31:50.751Z,96246.53
2022-10-18T08:34:20.006Z,96253.38
2022-10-18T08:36:48.208Z,96259.22
2022-10-18T08:39:17.715Z,96251.75
2022-10-18T08:42:07.311Z,96260.28
2022-10-18T08:44:45.091Z,96249.44
2022-10-18T08:47:18.647Z,96251.91
2022-10-18T08:49:50.943Z,96243.47
2022-10-18T08:52:29.768Z,96248.59
2022-10-18T08:55:04.325Z,96250.81
2022-10-18T08:57:33.725Z,96253.59
2022-10-18T09:00:04.084Z,96252.66
2022-10-18T09:02:44.483Z,96242.84
2022-10-18T09:05:23.691Z,96253.56
2022-10-18T09:08:09.815Z,96252.56
2022-10-18T09:10:52.130Z,96248.91
2022-10-18T09:13:38.643Z,96247.06
2022-10-18T09:16:11.861Z,96235.28
2022-10-18T09:18:57.722Z,96238.50
2022-10-18T09:21:38.009Z,96240.59
2022-10-18T09:24:13.043Z,96243.53
2022-10-18T09:26:46.279Z,96249.97
2022-10-18T09:29:34.006Z,96244.31
2022-10-18T09:32:12.003Z,96236.50
2022-10-18T09:34:47.300Z,96232.19
2022-10-18T09:37:18.127Z,96236.50
2022-10-18T09:39:48.556Z,96231.91
2022-10-18T09:42:26.906Z,96228.94
2022-10-18T09:45:00.600Z,96235.34
2022-10-18T09:47:34.903Z,96233.69
2022-10-18T09:50:07.601Z,96237.22
2022-10-18T09:52:42.282Z,96234.22
2022-10-18T09:55:19.183Z,96231.66
2022-10-18T09:57:53.657Z,96227.94
2022-10-18T10:00:28.501Z,96223.06
2022-10-18T10:02:56.519Z,96233.78
2022-10-18T10:05:24.440Z,96221.38
2022-10-18T10:07:59.714Z,96229.47
2022-10-18T10:10:30.361Z,96223.75
2022-10-18T10:13:08.970Z,96237.72
2022-10-18T10:15:40.485Z,96228.88
2022-10-18T10:18:20.509Z,96227.28
2022-10-18T10:20:51.729Z,96220.97
2022-10-18T10:23:24.197Z,96226.78
2022-10-18T10:25:54.062Z,96213.38
2022-10-18T10:28:27.657Z,96224.88
2022-10-18T10:30:55.906Z,96211.69
2022-10-18T10:33:33.973Z,96202.16
2022-10-18T10:36:04.835Z,96210.69
2022-10-18T10:38:32.984Z,96210.25
2022-10-18T10:41:01.119Z,96207.97
2022-10-18T10:43:37.571Z,96221.25
2022-10-18T10:46:10.848Z,96204.72
2022-10-18T10:48:48.562Z,96209.50
2022-10-18T10:51:29.655Z,96208.63
2022-10-18T10:54:01.340Z,96210.50
2022-10-18T10:56:32.115Z,96196.16
2022-10-18T10:59:11.125Z,96200.22
2022-10-18T11:01:39.218Z,96202.66
2022-10-18T11:04:29.052Z,96198.78
2022-10-18T11:07:14.785Z,96193.25
2022-10-18T11:09:53.295Z,96195.88
2022-10-18T11:12:33.259Z,96194.63
2022-10-18T11:15:15.608Z,96185.66
2022-10-18T11:17:50.232Z,96189.38
2022-10-18T11:20:26.647Z,96192.63
2022-10-18T11:23:03.137Z,96194.47
2022-10-18T11:25:54.674Z,96183.38
2022-10-18T11:28:33.044Z,96186.69
2022-10-18T11:31:12.761Z,96174.56
2022-10-18T11:34:10.965Z,96175.38
2022-10-18T11:37:15.915Z,96186.16
2022-10-18T11:39:50.964Z,96165.94
2022-10-18T11:42:27.872Z,96170.16
2022-10-18T11:45:06.757Z,96145.13
2022-10-18T11:47:44.775Z,96159.34
2022-10-18T11:50:26.306Z,96149.13
2022-10-18T11:53:03.295Z,96145.81
2022-10-18T11:55:45.150Z,96158.69
2022-10-18T11:58:30.167Z,96152.06
2022-10-18T12:01:02.443Z,96141.97
2022-10-18T12:03:50.832Z,96139.88
2022-10-18T12:06:23.170Z,96137.97
2022-10-18T12:08:55.772Z,96130.03
2022-10-18T12:11:28.921Z,96131.78
2022-10-18T12:14:00.244Z,96124.69
2022-10-18T12:16:49.998Z,96126.28
2022-10-18T12:19:26.470Z,96130.97
2022-10-18T12:21:59.091Z,96129.47
2022-10-18T12:24:29.791Z,96130.25
2022-10-18T12:27:00.683Z,96117.50
2022-10-18T12:29:32.505Z,96124.50
2022-10-18T12:32:04.267Z,96129.81
2022-10-18T12:34:38.475Z,96139.25
2022-10-18T12:37:27.703Z,96135.16
2022-10-18T12:40:18.444Z,96119.94
2022-10-18T12:42:49.942Z,96119.44
2022-10-18T12:45:26.006Z,96134.34
2022-10-18T12:47:55.757Z,96124.16
2022-10-18T12:50:35.822Z,96125.84
2022-10-18T12:53:09.216Z,96114.47
2022-10-18T12:55:39.702Z,96120.28
2022-10-18T12:58:30.962Z,96111.28
2022-10-18T13:01:06.817Z,96104.78
2022-10-18T13:04:02.485Z,96116.97
2022-10-18T13:07:05.740Z,96113.88
2022-10-18T13:09:38.185Z,96114.56
2022-10-18T13:12:47.927Z,96109.81
2022-10-18T13:15:41.416Z,96117.09
2022-10-18T13:18:23.923Z,96119.97
2022-10-18T13:21:14.279Z,96110.19
2022-10-18T13:24:01.466Z,96114.88
2022-10-18T13:26:43.876Z,96116.81
2022-10-18T13:29:31.601Z,96116.09
2022-10-18T13:32:10.282Z,96118.78
2022-10-18T13:34:39.871Z,96116.97
2022-10-18T13:37:23.794Z,96112.38
2022-10-18T13:39:53.808Z,96112.97
2022-10-18T13:42:33.959Z,96114.69
2022-10-18T13:45:54.137Z,96106.16
2022-10-18T13:48:51.271Z,96112.28
2022-10-18T13:51:50.555Z,96114.84
2022-10-18T13:54:44.033Z,96122.00
2022-10-18T13:57:31.838Z,96120.41
2022-10-18T14:00:29.586Z,96117.59
2022-10-18T14:03:55.011Z,96104.09
2022-10-18T14:06:20.047Z,96113.34
2022-10-18T14:08:55.869Z,96117.16
2022-10-18T14:11:31.155Z,96111.47
2022-10-18T14:14:07.711Z,96106.78
2022-10-18T14:16:41.409Z,96105.59
2022-10-18T14:19:18.880Z,96106.66
2022-10-18T14:21:55.076Z,96102.09
2022-10-18T14:24:26.159Z,96109.19
2022-10-18T14:27:19.662Z,96099.00
2022-10-18T14:29:49.289Z,96106.38
2022-10-18T14:32:29.344Z,96105.06
2022-10-18T14:35:27.269Z,96107.06
2022-10-18T14:37:49.128Z,96102.41
2022-10-18T14:40:28.905Z,96103.81
2022-10-18T14:42:57.277Z,96087.22
2022-10-18T14:45:25.429Z,96091.81
2022-10-18T14:47:54.854Z,96097.72
2022-10-18T14:50:29.082Z,96097.34
2022-10-18T14:52:59.419Z,96095.84
2022-10-18T14:55:28.847Z,96099.22
2022-10-18T14:57:57.403Z,96102.44
2022-10-18T15:00:36.070Z,96106.56
2022-10-18T15:03:12.723Z,96099.66
2022-10-18T15:05:53.723Z,96102.09
2022-10-18T15:08:23.981Z,96109.75
2022-10-18T15:10:55.090Z,96123.31
2022-10-18T15:13:25.260Z,96144.91
2022-10-18T15:15:54.410Z,96140.44
2022-10-18T15:18:27.477Z,96149.41
2022-10-18T15:21:23.079Z,96164.41
2022-10-18T15:23:52.765Z,96165.28
2022-10-18T15:26:25.203Z,96170.50
2022-10-18T15:29:01.435Z,96166.44
2022-10-18T15:31:36.012Z,96156.50
2022-10-18T15:34:20.545Z,96154.13
2022-10-18T15:36:50.662Z,96151.28
2022-10-18T15:39:22.017Z,96162.78
2022-10-18T15:41:51.426Z,96163.50
2022-10-18T15:44:27.199Z,96149.25
2022-10-18T15:46:59.260Z,96162.41
2022-10-18T15:50:02.515Z,96149.44
2022-10-18T15:52:40.181Z,96145.44
2022-10-18T15:55:47.924Z,96151.13
2022-10-18T15:58:25.363Z,96151.16
2022-10-18T16:00:57.408Z,96151.97
2022-10-18T16:03:28.049Z,96143.44
2022-10-18T16:06:05.766Z,96151.19
2022-10-18T16:08:40.712Z,96153.09
2022-10-18T16:11:10.068Z,96146.09
2022-10-18T16:13:38.167Z,96160.06
2022-10-18T16:16:07.041Z,96156.81
2022-10-18T16:18:35.314Z,96162.97
2022-10-18T16:21:05.036Z,96153.63
2022-10-18T16:23:33.453Z,96161.94
2022-10-18T16:26:01.805Z,96162.22
2022-10-18T16:28:31.760Z,96171.28
2022-10-18T16:31:03.962Z,96163.00
2022-10-18T16:33:36.877Z,96166.72
2022-10-18T16:36:09.438Z,96163.25
2022-10-18T16:38:42.305Z,96166.97
2022-10-18T16:41:11.088Z,96164.59
2022-10-18T16:43:39.652Z,96169.13
2022-10-18T16:46:08.643Z,96161.88
2022-10-18T16:48:36.668Z,96175.81
2022-10-18T16:51:06.641Z,96179.25
2022-10-18T16:53:34.637Z,96183.56
2022-10-18T16:56:04.205Z,96184.59
2022-10-18T16:58:34.136Z,96191.25
2022-10-18T17:01:04.174Z,96195.25
2022-10-18T17:03:36.547Z,96202.19
2022-10-18T17:06:06.057Z,96205.66
2022-10-18T17:08:34.324Z,96202.16
2022-10-18T17:11:02.535Z,96206.94
2022-10-18T17:13:30.603Z,96202.88
2022-10-18T17:16:03.346Z,96209.78
2022-10-18T17:18:31.685Z,96214.56
2022-10-18T17:21:03.304Z,96219.09
2022-10-18T17:23:34.142Z,96211.09
2022-10-18T17:26:08.664Z,96224.72
2022-10-18T17:28:43.535Z,96218.28
2022-10-18T17:31:11.804Z,96222.25
2022-10-18T17:33:39.975Z,96227.34
2022-10-18T17:36:08.460Z,96225.97
2022-10-18T17:38:38.165Z,96225.44
2022-10-18T17:41:08.247Z,96232.81
2022-10-18T17:43:38.132Z,96234.66
2022-10-18T17:46:06.455Z,96245.44
2022-10-18T17:48:35.356Z,96255.53
2022-10-18T17:51:08.293Z,96250.53
2022-10-18T17:53:37.939Z,96248.38
2022-10-18T17:56:07.733Z,96246.81
2022-10-18T17:58:36.417Z,96250.41
2022-10-18T18:01:11.926Z,96254.06
2022-10-18T18:03:41.195Z,96257.50
2022-10-18T18:06:20.295Z,96253.25
2022-10-18T18:08:50.855Z,96255.22
2022-10-18T18:11:19.475Z,96265.00
2022-10-18T18:13:47.505Z,96265.06
2022-10-18T18:16:18.345Z,96259.97
2022-10-18T18:18:47.934Z,96256.16
2022-10-18T18:21:16.117Z,96257.63
2022-10-18T18:23:45.096Z,96260.16
2022-10-18T18:26:16.831Z,96264.63
2022-10-18T18:28:45.360Z,96255.47
2022-10-18T18:31:15.927Z,96262.00
2022-10-18T18:33:44.442Z,96257.78
2022-10-18T18:36:13.104Z,96255.19
2022-10-18T18:38:43.479Z,96246.00
2022-10-18T18:41:14.072Z,96258.81
2022-10-18T18:43:45.762Z,96255.81
2022-10-18T18:46:14.036Z,96253.56
2022-10-18T18:48:43.331Z,96257.53
2022-10-18T18:51:14.426Z,96254.13
2022-10-18T18:53:43.826Z,96260.31
2022-10-18T18:56:14.169Z,96258.88
2022-10-18T18:58:44.990Z,96267.38
2022-10-18T19:01:14.760Z,96257.31
2022-10-18T19:03:43.857Z,96260.28
2022-10-18T19:06:15.781Z,96255.13
2022-10-18T19:08:45.665Z,96254.41
2022-10-18T19:11:15.871Z,96257.19
2022-10-18T19:13:46.258Z,96260.22
2022-10-18T19:16:21.041Z,96252.28
2022-10-18T19:18:52.985Z,96253.19
2022-10-18T19:21:21.873Z,96238.97
2022-10-18T19:23:50.296Z,96249.97
2022-10-18T19:26:28.494Z,96255.69
2022-10-18T19:29:02.938Z,96254.19
2022-10-18T19:31:30.938Z,96260.69
2022-10-18T19:33:59.874Z,96249.66
2022-10-18T19:36:28.973Z,96253.94
2022-10-18T19:38:56.991Z,96249.44
2022-10-18T19:43:54.039Z,96253.03
2022-10-18T19:46:23.722Z,96258.81
2022-10-18T19:48:54.056Z,96254.97
2022-10-18T19:51:26.829Z,96260.69
2022-10-18T19:53:57.331Z,96261.34
2022-10-18T19:56:27.199Z,96261.78
2022-10-18T19:58:57.082Z,96253.72
2022-10-18T20:01:27.920Z,96257.06
2022-10-18T20:03:56.914Z,96259.53
2022-10-18T20:06:25.110Z,96264.84
2022-10-18T20:08:53.449Z,96265.59
2022-10-18T20:11:24.266Z,96271.53
2022-10-18T20:13:52.637Z,96276.38
2022-10-18T20:16:27.715Z,96275.25
2022-10-18T20:18:58.713Z,96269.19
2022-10-18T20:21:31.493Z,96266.13
2022-10-18T20:23:59.475Z,96277.16
2022-10-18T20:26:27.540Z,96274.81
2022-10-18T20:28:57.908Z,96281.91
2022-10-18T20:31:27.719Z,96277.78
2022-10-18T20:33:58.779Z,96277.69
2022-10-18T20:36:27.832Z,96266.09
2022-10-18T20:38:56.499Z,96267.81
2022-10-18T20:41:27.693Z,96274.78
2022-10-18T20:43:57.195Z,96267.56
2022-10-18T20:46:26.754Z,96266.50
2022-10-18T20:48:55.384Z,96262.25
2022-10-18T20:51:26.748Z,96264.94
2022-10-18T20:53:54.895Z,96261.59
2022-10-18T20:56:26.560Z,96252.72
2022-10-18T20:58:56.908Z,96262.31
2022-10-18T21:01:28.037Z,96249.19
2022-10-18T21:03:58.171Z,96265.91
2022-10-18T21:06:31.491Z,96262.31
2022-10-18T21:09:01.356Z,96257.78
2022-10-18T21:11:30.866Z,96263.56
2022-10-18T21:14:02.614Z,96262.44
2022-10-18T21:16:31.138Z,96254.81
2022-10-18T21:19:02.950Z,96264.63
2022-10-18T21:21:32.818Z,96260.13
2022-10-18T21:24:03.905Z,96262.03
2022-10-18T21:26:35.293Z,96258.34
2022-10-18T21:29:03.530Z,96261.72
2022-10-18T21:31:34.677Z,96253.09
2022-10-18T21:34:04.416Z,96253.56
2022-10-18T21:36:35.806Z,96255.28
2022-10-18T21:39:04.600Z,96256.56
2022-10-18T21:41:32.963Z,96259.31
2022-10-18T21:44:03.482Z,96253.75
2022-10-18T21:46:33.667Z,96251.09
2022-10-18T21:49:01.715Z,96251.34
2022-10-18T21:51:29.987Z,96251.00
2022-10-18T21:53:59.783Z,96238.91
2022-10-18T21:56:29.643Z,96243.03
2022-10-18T21:58:58.295Z,96236.59
2022-10-18T22:01:29.139Z,96234.97
2022-10-18T22:03:58.136Z,96239.25
2022-10-18T22:06:29.290Z,96235.09
2022-10-18T22:09:00.654Z,96230.47
2022-10-18T22:11:31.374Z,96232.59
2022-10-18T22:13:59.505Z,96227.75
2022-10-18T22:16:27.860Z,96232.16
2022-10-18T22:18:59.697Z,96230.91
2022-10-18T22:21:28.589Z,96233.69
2022-10-18T22:23:58.447Z,96224.47
2022-10-18T22:26:29.852Z,96218.00
2022-10-18T22:29:00.090Z,96219.28
2022-10-18T22:31:30.425Z,96221.00
2022-10-18T22:34:01.440Z,96218.00
2022-10-18T22:36:29.482Z,96218.56
2022-10-18T22:38:57.709Z,96210.94
2022-10-18T22:41:27.244Z,96216.25
2022-10-18T22:43:57.343Z,96214.66
2022-10-18T22:46:27.829Z,96205.75
2022-10-18T22:48:56.041Z,96208.28
2022-10-18T22:51:24.215Z,96202.53
2022-10-18T22:53:52.330Z,96204.16
2022-10-18T22:56:22.458Z,96210.38
2022-10-18T22:58:52.900Z,96204.03
2022-10-18T23:01:23.202Z,96200.22
2022-10-18T23:03:54.267Z,96201.97
2022-10-18T23:06:24.637Z,96198.50
2022-10-18T23:08:54.393Z,96205.75
2022-10-18T23:11:22.693Z,96193.88
2022-10-18T23:13:52.475Z,96198.59
2022-10-18T23:16:21.187Z,96198.38
2022-10-18T23:18:52.306Z,96196.41
2022-10-18T23:21:21.456Z,96195.88
2022-10-18T23:23:49.532Z,96196.31
2022-10-18T23:26:19.643Z,96193.53
2022-10-18T23:28:50.755Z,96189.06
2022-10-18T23:31:22.091Z,96190.91
2022-10-18T23:33:52.586Z,96194.25
2022-10-18T23:36:20.817Z,96193.31
2022-10-18T23:38:49.045Z,96196.91
2022-10-18T23:41:17.681Z,96197.47
2022-10-18T23:43:46.538Z,96199.44
2022-10-18T23:46:15.383Z,96197.69
2022-10-18T23:48:45.739Z,96191.59
2022-10-18T23:51:13.838Z,96202.66
2022-10-18T23:53:41.994Z,96197.47
2022-10-18T23:56:11.958Z,96201.28
2022-10-18T23:58:40.738Z,96198.84
